createdAt,value
2018-09-24T00:01:20.372Z,89.50
2018-09-24T00:11:10.084Z,93.80
2018-09-24T00:16:04.901Z,89.00
2018-09-24T00:18:32.476Z,91.00
2018-09-24T00:20:59.955Z,88.60
2018-09-24T00:23:27.510Z,87.40
2018-09-24T00:25:55.034Z,90.10
2018-09-24T00:28:22.649Z,90.30
2018-09-24T00:30:50.110Z,90.40
2018-09-24T00:33:17.564Z,91.20
2018-09-24T00:35:45.048Z,91.10
2018-09-24T00:38:12.614Z,93.90
2018-09-24T00:40:40.140Z,88.90
2018-09-24T00:43:07.752Z,91.70
2018-09-24T00:52:57.964Z,86.90
2018-09-24T00:55:25.518Z,89.80
2018-09-24T01:02:47.992Z,90.70
2018-09-24T01:10:10.342Z,91.50
2018-09-24T01:12:37.892Z,89.20
2018-09-24T01:15:05.847Z,92.00
2018-09-24T01:17:33.341Z,87.50
2018-09-24T01:20:00.894Z,87.10
2018-09-24T01:22:28.434Z,82.40
2018-09-24T01:24:55.973Z,92.40
2018-09-24T01:27:23.503Z,86.90
2018-09-24T01:29:51.089Z,85.20
2018-09-24T01:32:18.599Z,92.50
2018-09-24T01:34:46.108Z,90.10
2018-09-24T01:37:13.590Z,86.50
2018-09-24T01:39:41.070Z,93.70
2018-09-24T01:42:08.559Z,90.60
2018-09-24T01:49:30.941Z,92.80
2018-09-24T01:54:27.893Z,92.00
2018-09-24T01:56:55.416Z,90.20
2018-09-24T01:59:22.880Z,89.80
2018-09-24T02:01:50.432Z,88.10
2018-09-24T02:04:17.944Z,91.60
2018-09-24T02:06:45.456Z,88.20
2018-09-24T02:09:13.000Z,90.00
2018-09-24T02:11:40.520Z,84.30
2018-09-24T02:21:30.401Z,91.00
2018-09-24T02:24:02.538Z,85.30
2018-09-24T02:26:30.065Z,84.90
2018-09-24T02:28:57.546Z,91.30
2018-09-24T02:31:25.030Z,90.90
2018-09-24T02:33:52.533Z,85.60
2018-09-24T02:36:20.105Z,91.40
2018-09-24T02:38:47.613Z,90.50
2018-09-24T02:43:42.567Z,84.00
2018-09-24T02:48:37.472Z,90.10
2018-09-24T02:51:05.048Z,91.50
2018-09-24T02:56:05.413Z,88.10
2018-09-24T02:58:32.892Z,83.20
2018-09-24T03:01:00.474Z,92.70
2018-09-24T03:03:27.991Z,93.40
2018-09-24T03:05:55.589Z,86.70
2018-09-24T03:10:50.569Z,82.30
2018-09-24T03:13:18.054Z,85.20
2018-09-24T03:25:37.155Z,98.40
2018-09-24T03:40:23.563Z,91.80
2018-09-24T03:42:51.077Z,91.10
2018-09-24T04:07:37.377Z,98.80
2018-09-24T04:12:44.054Z,96.60
2018-09-24T04:15:17.418Z,95.70
2018-09-24T04:17:50.531Z,87.60
2018-09-24T04:20:23.695Z,96.70
2018-09-24T04:22:56.810Z,93.30
2018-09-24T04:28:02.881Z,97.30
2018-09-24T04:30:36.012Z,93.40
2018-09-24T04:38:15.490Z,79.20
2018-09-24T04:48:27.677Z,97.20
2018-09-24T04:51:00.889Z,93.00
2018-09-24T04:56:07.268Z,91.30
2018-09-24T04:58:40.347Z,89.50
2018-09-24T05:01:13.777Z,97.00
2018-09-24T05:03:46.907Z,83.00
2018-09-24T05:06:20.146Z,89.80
2018-09-24T05:08:53.381Z,94.70
2018-09-24T05:16:32.893Z,88.90
2018-09-24T05:21:39.330Z,92.10
2018-09-24T05:24:12.540Z,90.50
2018-09-24T05:31:51.830Z,84.00
2018-09-24T05:34:25.027Z,80.50
2018-09-24T05:36:58.190Z,80.20
2018-09-24T05:42:04.479Z,81.00
2018-09-24T05:47:10.860Z,75.90
2018-09-24T05:49:44.051Z,70.30
2018-09-24T05:52:17.312Z,82.40
2018-09-24T05:54:50.512Z,77.80
2018-09-24T05:57:23.720Z,83.20
2018-09-24T05:59:56.892Z,74.80
2018-09-24T06:02:30.105Z,72.40
2018-09-24T06:05:03.291Z,72.50
2018-09-24T06:07:36.580Z,70.50
2018-09-24T06:10:10.056Z,72.00
2018-09-24T06:12:43.208Z,74.00
2018-09-24T06:17:49.478Z,72.80
2018-09-24T06:20:22.641Z,73.60
2018-09-24T06:22:55.748Z,72.80
2018-09-24T06:25:28.877Z,72.50
2018-09-24T06:28:02.183Z,70.80
2018-09-24T06:30:35.463Z,69.10
2018-09-24T06:33:08.716Z,71.50
2018-09-24T06:35:41.892Z,69.10
2018-09-24T06:38:15.059Z,69.10
2018-09-24T06:40:48.240Z,70.80
2018-09-24T06:45:54.473Z,67.70
2018-09-24T06:48:27.714Z,72.10
2018-09-24T06:51:00.847Z,70.60
2018-09-24T06:53:33.997Z,67.70
2018-09-24T06:56:07.286Z,69.10
2018-09-24T06:58:40.289Z,69.50
2018-09-24T07:01:13.675Z,67.60
2018-09-24T07:03:46.840Z,67.90
2018-09-24T07:06:20.175Z,67.20
2018-09-24T07:08:53.333Z,65.50
2018-09-24T07:11:26.837Z,65.80
2018-09-24T07:13:59.998Z,65.30
2018-09-24T07:16:33.288Z,65.80
2018-09-24T07:19:06.393Z,70.00
2018-09-24T07:21:39.645Z,64.90
2018-09-24T07:26:45.968Z,65.30
2018-09-24T07:29:19.145Z,60.10
2018-09-24T07:31:52.480Z,62.30
2018-09-24T07:34:25.628Z,60.10
2018-09-24T07:37:05.841Z,59.60
2018-09-24T07:39:39.057Z,59.40
2018-09-24T07:42:12.217Z,57.50
2018-09-24T07:44:45.447Z,58.40
2018-09-24T07:47:18.604Z,57.80
2018-09-24T07:52:24.851Z,57.00
2018-09-24T07:54:58.163Z,58.00
2018-09-24T07:57:31.332Z,56.70
2018-09-24T08:00:04.547Z,55.30
2018-09-24T08:05:10.913Z,54.50
2018-09-24T08:07:44.251Z,53.70
2018-09-24T08:10:17.401Z,53.20
2018-09-24T08:12:51.760Z,53.10
2018-09-24T08:15:24.812Z,54.10
2018-09-24T08:20:31.110Z,53.40
2018-09-24T08:23:04.312Z,49.50
2018-09-24T08:25:37.496Z,57.40
2018-09-24T08:28:10.940Z,53.80
2018-09-24T08:30:44.112Z,48.40
2018-09-24T08:33:17.240Z,48.10
2018-09-24T08:35:50.425Z,47.30
2018-09-24T08:40:56.595Z,52.60
2018-09-24T08:43:29.907Z,45.30
2018-09-24T08:48:36.161Z,44.80
2018-09-24T08:51:09.423Z,44.60
2018-09-24T08:53:42.736Z,42.90
2018-09-24T08:56:15.941Z,42.50
2018-09-24T08:58:49.172Z,43.70
2018-09-24T09:01:23.466Z,42.80
2018-09-24T09:03:56.577Z,43.00
2018-09-24T09:06:29.829Z,43.40
2018-09-24T09:14:09.492Z,44.50
2018-09-24T09:16:42.729Z,44.00
2018-09-24T09:19:15.862Z,43.00
2018-09-24T09:21:49.403Z,43.50
2018-09-24T09:26:55.883Z,43.10
2018-09-24T09:29:28.868Z,42.40
2018-09-24T09:32:02.041Z,39.90
2018-09-24T09:34:35.201Z,38.70
2018-09-24T09:39:41.641Z,36.90
2018-09-24T09:42:14.779Z,37.50
2018-09-24T09:44:47.979Z,37.80
2018-09-24T09:47:21.176Z,35.40
2018-09-24T09:49:55.360Z,35.30
2018-09-24T09:52:28.584Z,36.20
2018-09-24T09:55:01.820Z,34.70
2018-09-24T09:57:35.205Z,35.30
2018-09-24T10:00:09.203Z,36.20
2018-09-24T10:02:43.125Z,35.60
2018-09-24T10:05:16.282Z,34.00
2018-09-24T10:07:51.543Z,34.50
2018-09-24T10:10:25.089Z,33.10
2018-09-24T10:12:58.190Z,31.60
2018-09-24T10:15:31.548Z,30.70
2018-09-24T10:18:04.777Z,30.60
2018-09-24T10:20:37.817Z,31.10
2018-09-24T10:23:11.091Z,31.00
2018-09-24T10:25:44.527Z,31.90
2018-09-24T10:28:18.890Z,30.70
2018-09-24T10:30:52.399Z,28.60
2018-09-24T10:33:25.641Z,28.70
2018-09-24T10:35:59.165Z,29.70
2018-09-24T10:38:32.543Z,26.40
2018-09-24T10:46:13.115Z,29.80
2018-09-24T10:48:46.272Z,29.10
2018-09-24T10:51:19.520Z,30.70
2018-09-24T10:53:52.793Z,29.60
2018-09-24T10:56:25.949Z,29.90
2018-09-24T10:58:59.561Z,28.50
2018-09-24T11:01:32.785Z,27.80
2018-09-24T11:04:06.052Z,28.20
2018-09-24T11:06:39.180Z,30.00
2018-09-24T11:09:13.417Z,31.40
2018-09-24T11:11:47.589Z,28.20
2018-09-24T11:14:21.102Z,30.40
2018-09-24T11:16:54.395Z,26.90
2018-09-24T11:19:27.534Z,28.90
2018-09-24T11:22:00.895Z,27.60
2018-09-24T11:27:07.481Z,26.70
2018-09-24T11:32:14.151Z,27.20
2018-09-24T11:34:47.516Z,26.50
2018-09-24T11:37:20.733Z,29.00
2018-09-24T11:39:53.813Z,28.20
2018-09-24T11:42:26.909Z,29.00
2018-09-24T11:45:00.163Z,29.30
2018-09-24T11:47:33.424Z,31.00
2018-09-24T11:50:06.549Z,30.50
2018-09-24T11:52:39.783Z,28.60
2018-09-24T11:55:12.997Z,30.50
2018-09-24T12:00:19.604Z,29.90
2018-09-24T12:05:27.922Z,30.00
2018-09-24T12:08:01.222Z,30.80
2018-09-24T12:10:38.608Z,31.90
2018-09-24T12:13:12.675Z,33.10
2018-09-24T12:15:46.002Z,32.60
2018-09-24T12:18:19.162Z,32.00
2018-09-24T12:20:54.882Z,31.60
2018-09-24T12:23:28.553Z,32.20
2018-09-24T12:26:01.801Z,31.70
2018-09-24T12:28:35.118Z,32.30
2018-09-24T12:33:41.882Z,32.80
2018-09-24T12:38:48.176Z,32.50
2018-09-24T12:41:21.365Z,34.50
2018-09-24T12:43:54.657Z,35.50
2018-09-24T12:46:27.950Z,34.60
2018-09-24T12:49:01.102Z,34.70
2018-09-24T12:56:40.876Z,35.50
2018-09-24T12:59:14.179Z,36.00
2018-09-24T13:01:47.474Z,36.90
2018-09-24T13:04:20.641Z,36.70
2018-09-24T13:06:53.973Z,35.90
2018-09-24T13:09:27.259Z,35.70
2018-09-24T13:12:00.678Z,35.70
2018-09-24T13:14:33.882Z,35.90
2018-09-24T13:17:07.027Z,35.90
2018-09-24T13:19:40.198Z,35.60
2018-09-24T13:22:13.887Z,35.20
2018-09-24T13:24:47.133Z,36.30
2018-09-24T13:27:20.370Z,36.30
2018-09-24T13:29:53.545Z,35.40
2018-09-24T13:35:00.202Z,35.10
2018-09-24T13:37:33.390Z,34.80
2018-09-24T13:40:06.808Z,35.50
2018-09-24T13:42:39.926Z,33.30
2018-09-24T13:45:13.034Z,35.00
2018-09-24T13:47:46.571Z,40.90
2018-09-24T13:50:19.891Z,34.90
2018-09-24T13:52:53.182Z,34.60
2018-09-24T13:55:26.445Z,34.40
2018-09-24T13:58:00.318Z,35.60
2018-09-24T14:00:33.576Z,35.90
2018-09-24T14:03:06.752Z,35.70
2018-09-24T14:08:12.907Z,42.10
2018-09-24T14:10:46.110Z,36.30
2018-09-24T14:15:52.615Z,35.50
2018-09-24T14:18:25.822Z,35.40
2018-09-24T14:20:58.968Z,34.00
2018-09-24T14:23:32.212Z,32.70
2018-09-24T14:26:05.389Z,33.50
2018-09-24T14:28:38.592Z,35.90
2018-09-24T14:31:11.712Z,39.80
2018-09-24T14:33:44.863Z,41.00
2018-09-24T14:36:18.040Z,45.00
2018-09-24T14:38:51.285Z,47.20
2018-09-24T14:41:24.535Z,48.30
2018-09-24T14:43:57.675Z,47.60
2018-09-24T14:46:30.729Z,45.90
2018-09-24T14:49:03.950Z,45.30
2018-09-24T14:51:37.268Z,45.20
2018-09-24T14:54:10.544Z,45.90
2018-09-24T14:56:43.632Z,47.10
2018-09-24T15:06:59.441Z,57.50
2018-09-24T15:19:45.706Z,51.40
2018-09-24T15:24:52.398Z,51.80
2018-09-24T15:27:25.930Z,56.00
2018-09-24T15:29:59.165Z,57.80
2018-09-24T15:32:32.752Z,55.60
2018-09-24T15:35:06.138Z,52.70
2018-09-24T15:40:12.442Z,58.00
2018-09-24T15:47:52.689Z,53.40
2018-09-24T15:50:27.254Z,54.60
2018-09-24T15:55:33.712Z,50.90
2018-09-24T16:00:42.182Z,50.90
2018-09-24T16:03:16.152Z,51.60
2018-09-24T16:05:49.339Z,48.70
2018-09-24T16:08:24.422Z,47.50
2018-09-24T16:13:30.839Z,48.20
2018-09-24T16:16:04.124Z,47.90
2018-09-24T16:18:37.229Z,47.50
2018-09-24T16:21:11.058Z,46.60
2018-09-24T16:26:19.963Z,46.00
2018-09-24T16:28:53.260Z,46.20
2018-09-24T16:31:27.925Z,45.40
2018-09-24T16:34:01.600Z,46.40
2018-09-24T16:36:34.772Z,46.70
2018-09-24T16:41:41.213Z,46.60
2018-09-24T16:44:14.356Z,47.50
2018-09-24T16:46:47.773Z,47.20
2018-09-24T16:49:21.759Z,48.30
2018-09-24T16:53:19.577Z,48.40
2018-09-24T16:55:52.886Z,49.40
2018-09-24T16:58:26.775Z,48.40
2018-09-24T17:01:00.105Z,48.40
2018-09-24T17:03:33.445Z,48.70
2018-09-24T17:06:06.598Z,49.40
2018-09-24T17:08:39.923Z,49.00
2018-09-24T17:11:13.028Z,49.40
2018-09-24T17:13:46.225Z,49.30
2018-09-24T17:18:52.592Z,50.00
2018-09-24T17:21:25.858Z,50.40
2018-09-24T17:23:59.081Z,50.60
2018-09-24T17:26:32.271Z,51.30
2018-09-24T17:29:05.540Z,51.60
2018-09-24T17:31:39.422Z,51.60
2018-09-24T17:36:45.572Z,51.60
2018-09-24T17:39:18.942Z,51.60
2018-09-24T17:41:52.160Z,51.20
2018-09-24T17:44:25.392Z,51.90
2018-09-24T17:46:58.644Z,52.90
2018-09-24T17:49:32.198Z,52.00
2018-09-24T17:52:05.312Z,51.90
2018-09-24T17:54:38.300Z,52.40
2018-09-24T17:57:11.761Z,52.00
2018-09-24T17:59:45.103Z,53.20
2018-09-24T18:02:18.093Z,52.10
2018-09-24T18:04:51.381Z,52.90
2018-09-24T18:09:57.683Z,52.90
2018-09-24T18:12:30.872Z,52.80
2018-09-24T18:15:04.104Z,52.70
2018-09-24T18:22:43.812Z,53.40
2018-09-24T18:25:17.537Z,53.70
2018-09-24T18:27:50.743Z,53.70
2018-09-24T18:30:24.147Z,54.60
2018-09-24T18:32:57.635Z,54.20
2018-09-24T18:35:30.690Z,54.80
2018-09-24T18:38:04.094Z,54.50
2018-09-24T18:40:37.421Z,54.40
2018-09-24T18:43:10.629Z,54.70
2018-09-24T18:45:43.895Z,55.00
2018-09-24T18:48:17.805Z,55.00
2018-09-24T18:50:51.633Z,55.20
2018-09-24T18:53:25.015Z,55.30
2018-09-24T18:55:58.373Z,55.30
2018-09-24T18:58:31.545Z,55.10
2018-09-24T19:01:05.025Z,55.50
2018-09-24T19:03:38.244Z,55.90
2018-09-24T19:06:12.324Z,56.30
2018-09-24T19:08:45.587Z,56.30
2018-09-24T19:11:27.703Z,56.80
2018-09-24T19:13:52.370Z,57.00
2018-09-24T19:16:25.845Z,56.90
2018-09-24T19:18:59.185Z,57.30
2018-09-24T19:21:32.560Z,57.20
2018-09-24T19:24:05.841Z,56.30
2018-09-24T19:26:39.133Z,56.20
2018-09-24T19:29:12.229Z,56.10
2018-09-24T19:31:45.518Z,56.10
2018-09-24T19:34:19.560Z,56.70
2018-09-24T19:36:53.232Z,56.00
2018-09-24T19:39:26.413Z,56.30
2018-09-24T19:41:59.489Z,56.50
2018-09-24T19:44:32.907Z,56.20
2018-09-24T19:47:06.081Z,56.30
2018-09-24T19:52:12.910Z,56.90
2018-09-24T19:54:46.654Z,57.50
2018-09-24T19:57:20.179Z,58.00
2018-09-24T20:05:01.385Z,58.50
2018-09-24T20:07:34.500Z,58.50
2018-09-24T20:23:07.339Z,59.00
2018-09-24T20:25:40.484Z,59.10
2018-09-24T20:28:13.649Z,59.70
2018-09-24T20:30:46.787Z,59.20
2018-09-24T20:38:26.341Z,58.20
2018-09-24T20:46:05.816Z,58.10
2018-09-24T20:48:39.112Z,58.50
2018-09-24T20:51:12.337Z,58.60
2018-09-24T20:53:45.671Z,59.30
2018-09-24T20:56:19.066Z,60.10
2018-09-24T20:58:52.284Z,59.80
2018-09-24T21:14:30.010Z,60.60
2018-09-24T21:17:03.276Z,61.10
2018-09-24T21:19:36.725Z,60.40
2018-09-24T21:27:16.025Z,59.50
2018-09-24T21:29:49.218Z,59.40
2018-09-24T21:32:22.503Z,59.80
2018-09-24T21:34:55.848Z,60.00
2018-09-24T21:37:29.071Z,60.10
2018-09-24T21:40:02.349Z,59.90
2018-09-24T21:42:35.565Z,60.50
2018-09-24T21:45:08.761Z,60.10
2018-09-24T21:47:41.979Z,61.00
2018-09-24T21:50:15.206Z,60.30
2018-09-24T21:52:48.367Z,60.70
2018-09-24T21:55:21.544Z,60.50
2018-09-24T22:00:27.795Z,61.00
2018-09-24T22:03:01.486Z,61.40
2018-09-24T22:05:35.447Z,61.80
2018-09-24T22:08:08.808Z,61.60
2018-09-24T22:10:41.945Z,61.70
2018-09-24T22:13:15.065Z,62.40
2018-09-24T22:15:48.213Z,61.90
2018-09-24T22:18:21.581Z,61.30
2018-09-24T22:23:27.920Z,61.40
2018-09-24T22:26:01.257Z,61.00
2018-09-24T22:28:34.543Z,61.40
2018-09-24T22:36:13.971Z,60.80
2018-09-24T22:38:47.164Z,60.80
2018-09-24T22:41:20.292Z,60.40
2018-09-24T22:43:53.440Z,60.20
2018-09-24T22:46:27.248Z,58.90
2018-09-24T22:49:00.433Z,58.80
2018-09-24T22:51:34.797Z,58.60
2018-09-24T22:56:41.104Z,58.50
2018-09-24T22:59:14.327Z,58.40
2018-09-24T23:01:47.313Z,58.60
2018-09-24T23:04:20.617Z,59.20
2018-09-24T23:06:53.856Z,60.10
2018-09-24T23:09:27.126Z,59.70
2018-09-24T23:12:00.463Z,59.20
2018-09-24T23:14:33.672Z,58.90
2018-09-24T23:17:06.909Z,60.40
2018-09-24T23:21:04.481Z,60.30
2018-09-24T23:23:37.700Z,60.90
2018-09-24T23:26:11.421Z,61.60
2018-09-24T23:28:44.596Z,61.90
2018-09-24T23:31:17.667Z,62.20
2018-09-24T23:33:50.867Z,61.70
2018-09-24T23:36:24.005Z,61.10
2018-09-24T23:38:57.112Z,61.10
2018-09-24T23:41:30.132Z,62.10
2018-09-24T23:44:03.551Z,61.50
2018-09-24T23:46:36.808Z,60.40
2018-09-24T23:49:10.118Z,60.00
2018-09-24T23:51:43.439Z,59.10
2018-09-24T23:54:16.599Z,60.60
2018-09-24T23:56:49.711Z,61.10
2018-09-24T23:59:22.821Z,60.70
